Time;durP1;ratioP1;P1;durP2;ratioP2;P2;SDS_P1;SDS_P2;PMS_P1;PMS_P2;Temp;Humidity;BMP_temperature;BMP_pressure;BME280_temperature;BME280_humidity;BME280_pressure;Samples;Min_cycle;Max_cycle;Signal;HPM_P1;HPM_P2
2023/04/19 00:01:45;;;;;;;5.90;4.10;;;10.10;99.90;;;;;;4078494;29;20035;-63
2023/04/19 00:03:46;;;;;;;7.57;4.00;;;10.10;99.90;;;;;;4079042;29;20036;-63
2023/04/19 00:05:47;;;;;;;7.13;4.03;;;10.00;99.90;;;;;;4078529;29;20505;-63
2023/04/19 00:07:50;;;;;;;4.60;3.20;;;10.10;99.90;;;;;;4066276;28;20500;-65
2023/04/19 00:09:51;;;;;;;5.97;3.07;;;10.00;99.90;;;;;;4073640;29;20066;-63
2023/04/19 00:11:52;;;;;;;12.30;4.10;;;10.00;99.90;;;;;;4078664;29;20041;-63
2023/04/19 00:13:53;;;;;;;13.77;3.57;;;10.00;99.90;;;;;;4079763;29;20078;-63
2023/04/19 00:15:54;;;;;;;5.23;3.10;;;10.00;99.90;;;;;;4078635;29;20032;-63
2023/04/19 00:17:55;;;;;;;7.13;3.37;;;10.00;99.90;;;;;;4078845;29;20085;-62
2023/04/19 00:19:57;;;;;;;9.03;4.27;;;9.90;99.90;;;;;;4062013;29;20086;-62
2023/04/19 00:21:58;;;;;;;5.70;3.50;;;10.00;99.90;;;;;;4063466;29;20044;-63
2023/04/19 00:24:01;;;;;;;4.97;3.30;;;9.90;99.90;;;;;;4062710;29;20040;-63
2023/04/19 00:26:03;;;;;;;7.30;3.00;;;10.00;99.90;;;;;;4064488;29;20036;-64
2023/04/19 00:28:04;;;;;;;5.30;3.37;;;9.90;99.90;;;;;;4062733;29;20090;-63
2023/04/19 00:30:06;;;;;;;5.37;3.27;;;9.90;99.90;;;;;;4063537;29;20087;-64
2023/04/19 00:32:07;;;;;;;5.50;3.30;;;9.90;99.90;;;;;;4062776;29;20024;-63
2023/04/19 00:34:08;;;;;;;4.87;3.30;;;9.90;99.90;;;;;;4069280;29;20030;-62
2023/04/19 00:36:09;;;;;;;4.80;3.47;;;9.90;99.90;;;;;;4066218;29;20373;-62
2023/04/19 00:38:11;;;;;;;6.00;3.30;;;9.90;99.90;;;;;;4069854;29;20602;-63
2023/04/19 00:40:12;;;;;;;5.87;3.63;;;9.90;99.90;;;;;;4079549;28;20044;-62
2023/04/19 00:42:13;;;;;;;6.50;3.80;;;9.90;99.90;;;;;;4078446;29;20109;-63
2023/04/19 00:44:14;;;;;;;7.37;3.60;;;9.90;99.90;;;;;;4077582;29;20035;-63
2023/04/19 00:46:15;;;;;;;5.17;3.77;;;9.80;99.90;;;;;;4078370;29;20036;-62
2023/04/19 00:48:17;;;;;;;7.43;3.33;;;9.80;99.90;;;;;;4078567;29;20055;-62
2023/04/19 00:50:19;;;;;;;5.13;3.33;;;9.80;99.90;;;;;;4077384;28;20496;-66
2023/04/19 00:52:21;;;;;;;5.53;3.63;;;9.80;99.90;;;;;;4072133;29;20040;-63
2023/04/19 00:54:23;;;;;;;7.77;3.83;;;9.80;99.90;;;;;;4066132;29;20028;-63
2023/04/19 00:56:26;;;;;;;10.00;3.73;;;9.80;99.90;;;;;;4065300;29;20078;-63
2023/04/19 00:58:30;;;;;;;7.13;3.60;;;9.80;99.90;;;;;;4076646;29;20442;-63
2023/04/19 01:00:31;;;;;;;5.73;3.63;;;9.80;99.90;;;;;;4061897;29;20052;-63
2023/04/19 01:02:32;;;;;;;7.03;4.83;;;9.80;99.90;;;;;;4078100;29;20097;-63
2023/04/19 01:04:34;;;;;;;7.70;4.10;;;9.70;99.90;;;;;;4078622;29;20055;-64
2023/04/19 01:06:35;;;;;;;5.77;4.13;;;9.70;99.90;;;;;;4077986;29;20031;-64
2023/04/19 01:08:37;;;;;;;7.50;4.30;;;9.70;99.90;;;;;;4078225;28;20043;-66
2023/04/19 01:10:38;;;;;;;4.83;3.70;;;9.70;99.90;;;;;;4078649;29;20055;-63
2023/04/19 01:12:39;;;;;;;6.70;3.73;;;9.70;99.90;;;;;;4068104;28;20040;-62
2023/04/19 01:14:40;;;;;;;8.83;4.37;;;9.80;99.90;;;;;;4062580;29;20123;-62
2023/04/19 01:16:42;;;;;;;7.70;4.00;;;9.70;99.90;;;;;;4062251;29;20075;-63
2023/04/19 01:18:43;;;;;;;7.17;3.93;;;9.60;99.90;;;;;;4064434;28;20040;-62
2023/04/19 01:20:45;;;;;;;7.40;3.77;;;9.60;99.90;;;;;;4045599;29;20129;-64
2023/04/19 01:22:46;;;;;;;9.13;4.10;;;9.60;99.90;;;;;;4063164;29;20032;-63
2023/04/19 01:24:47;;;;;;;5.17;3.47;;;9.50;99.90;;;;;;4062175;29;20073;-63
2023/04/19 01:26:49;;;;;;;5.43;3.90;;;9.50;99.90;;;;;;4063487;29;20078;-63
2023/04/19 01:28:50;;;;;;;7.10;3.77;;;9.50;99.90;;;;;;4062110;29;20048;-63
2023/04/19 01:30:52;;;;;;;6.33;4.30;;;9.50;99.90;;;;;;4063301;29;20024;-64
2023/04/19 01:32:54;;;;;;;7.17;4.00;;;9.50;99.90;;;;;;4063391;29;20071;-63
2023/04/19 01:34:55;;;;;;;7.13;3.60;;;9.50;99.90;;;;;;4078871;29;20043;-64
2023/04/19 01:36:56;;;;;;;5.63;4.00;;;9.40;99.90;;;;;;4077402;29;20032;-63
2023/04/19 01:38:57;;;;;;;6.47;3.90;;;9.40;99.90;;;;;;4078355;29;20472;-63
2023/04/19 01:40:58;;;;;;;8.67;4.17;;;9.40;99.90;;;;;;4078915;28;20031;-62
2023/04/19 01:42:59;;;;;;;4.97;3.77;;;9.40;99.90;;;;;;4077129;28;20035;-64
2023/04/19 01:45:01;;;;;;;5.03;3.23;;;9.40;99.90;;;;;;4071309;29;20518;-62
2023/04/19 01:47:03;;;;;;;6.93;3.67;;;9.40;99.90;;;;;;4077489;29;20032;-63
2023/04/19 01:49:04;;;;;;;5.97;3.80;;;9.40;99.90;;;;;;4072566;29;20079;-62
2023/04/19 01:51:05;;;;;;;6.40;3.90;;;9.40;99.90;;;;;;4061963;29;20033;-62
2023/04/19 01:53:06;;;;;;;5.80;4.00;;;9.30;99.90;;;;;;4065259;29;20476;-63
2023/04/19 01:55:08;;;;;;;6.53;3.47;;;9.30;99.90;;;;;;4068542;29;20020;-63
2023/04/19 01:57:09;;;;;;;6.17;3.80;;;9.30;99.90;;;;;;4081743;29;20039;-62
2023/04/19 01:59:10;;;;;;;5.20;3.80;;;9.30;99.90;;;;;;4064945;29;20098;-62
2023/04/19 02:01:11;;;;;;;5.73;3.57;;;9.30;99.90;;;;;;4065289;29;20083;-63
2023/04/19 02:03:13;;;;;;;5.60;3.93;;;9.40;99.90;;;;;;4064309;29;20152;-63
2023/04/19 02:05:14;;;;;;;5.57;3.53;;;9.40;99.90;;;;;;4066500;28;20087;-63
2023/04/19 02:07:15;;;;;;;4.93;3.77;;;9.40;99.90;;;;;;4064135;28;20048;-62
2023/04/19 02:09:16;;;;;;;4.03;3.23;;;9.50;99.90;;;;;;4064982;29;20040;-63
2023/04/19 02:11:18;;;;;;;8.53;3.63;;;9.50;99.90;;;;;;4064977;29;20032;-63
2023/04/19 02:13:19;;;;;;;4.60;3.37;;;9.50;99.90;;;;;;4064419;29;20044;-63
2023/04/19 02:15:21;;;;;;;7.83;3.87;;;9.50;99.90;;;;;;4066330;29;20044;-64
2023/04/19 02:17:22;;;;;;;6.97;3.57;;;9.50;99.90;;;;;;4071529;29;20103;-63
2023/04/19 02:19:24;;;;;;;5.10;3.30;;;9.50;99.90;;;;;;4080684;29;20071;-63
2023/04/19 02:21:25;;;;;;;4.57;2.87;;;9.50;99.90;;;;;;4079347;29;20092;-63
2023/04/19 02:23:26;;;;;;;6.53;3.30;;;9.60;99.90;;;;;;4080828;29;20464;-63
2023/04/19 02:25:27;;;;;;;4.23;3.17;;;9.50;99.90;;;;;;4064109;28;20469;-66
2023/04/19 02:27:28;;;;;;;4.73;3.37;;;9.50;99.90;;;;;;4081164;29;20089;-64
2023/04/19 02:29:29;;;;;;;5.57;3.77;;;9.50;99.90;;;;;;4070887;28;20126;-64
2023/04/19 02:31:31;;;;;;;8.90;4.10;;;9.50;99.90;;;;;;4065181;29;20071;-62
2023/04/19 02:33:32;;;;;;;5.67;3.63;;;9.40;99.90;;;;;;4064011;29;20102;-63
2023/04/19 02:35:33;;;;;;;6.50;3.27;;;9.40;99.90;;;;;;4064494;29;21028;-63
2023/04/19 02:37:34;;;;;;;7.57;4.57;;;9.40;99.90;;;;;;4063699;29;20103;-63
2023/04/19 02:39:35;;;;;;;8.63;4.53;;;9.40;99.90;;;;;;4072279;29;20082;-64
2023/04/19 02:41:36;;;;;;;5.20;3.67;;;9.40;99.90;;;;;;4079674;29;20035;-63
2023/04/19 02:43:38;;;;;;;5.60;4.00;;;9.40;99.90;;;;;;4079305;28;20110;-63
2023/04/19 02:45:39;;;;;;;6.17;4.03;;;9.30;99.90;;;;;;4080391;29;20066;-63
2023/04/19 02:47:40;;;;;;;6.67;4.07;;;9.30;99.90;;;;;;4078032;29;20070;-63
2023/04/19 02:49:42;;;;;;;5.83;4.03;;;9.30;99.90;;;;;;4081244;28;20106;-65
2023/04/19 02:51:43;;;;;;;8.47;3.50;;;9.30;99.90;;;;;;4078636;28;20044;-64
2023/04/19 02:53:44;;;;;;;7.40;4.03;;;9.30;99.90;;;;;;4080362;29;20027;-63
2023/04/19 02:55:45;;;;;;;5.63;3.60;;;9.40;99.90;;;;;;4076238;29;20044;-63
2023/04/19 02:57:46;;;;;;;6.77;4.23;;;9.30;99.90;;;;;;4072995;29;20036;-63
2023/04/19 02:59:47;;;;;;;5.33;3.60;;;9.30;99.90;;;;;;4063811;29;20017;-63
2023/04/19 03:01:48;;;;;;;3.97;3.57;;;9.30;99.90;;;;;;4064826;29;20036;-64
2023/04/19 03:03:50;;;;;;;8.87;3.77;;;9.30;99.90;;;;;;4045955;29;20083;-63
2023/04/19 03:05:52;;;;;;;7.60;3.80;;;9.30;99.90;;;;;;4079667;29;20102;-65
2023/04/19 03:07:53;;;;;;;5.17;3.17;;;9.30;99.90;;;;;;4077233;28;20060;-64
2023/04/19 03:09:54;;;;;;;5.90;3.13;;;9.20;99.90;;;;;;4080094;29;20032;-63
2023/04/19 03:11:55;;;;;;;4.00;3.47;;;9.20;99.90;;;;;;4080268;28;20089;-63
2023/04/19 03:13:56;;;;;;;4.10;3.40;;;9.20;99.90;;;;;;4080606;28;20040;-63
2023/04/19 03:15:58;;;;;;;4.53;2.63;;;9.10;99.90;;;;;;4079818;29;20031;-65
2023/04/19 03:17:59;;;;;;;5.17;3.23;;;9.10;99.90;;;;;;4080265;28;20086;-64
2023/04/19 03:20:00;;;;;;;10.00;2.80;;;9.10;99.90;;;;;;4074312;29;20036;-63
2023/04/19 03:22:01;;;;;;;6.90;3.23;;;9.10;99.90;;;;;;4063569;29;20094;-63
2023/04/19 03:24:02;;;;;;;4.57;2.67;;;9.10;99.90;;;;;;4063812;29;20078;-63
2023/04/19 03:26:04;;;;;;;3.97;2.63;;;9.10;99.90;;;;;;4063030;29;20083;-63
2023/04/19 03:28:05;;;;;;;3.90;2.90;;;9.10;99.90;;;;;;4064637;29;20098;-64
2023/04/19 03:30:06;;;;;;;5.13;2.97;;;9.10;99.90;;;;;;4063361;29;20086;-63
2023/04/19 03:32:08;;;;;;;7.93;3.73;;;9.10;99.90;;;;;;4064462;29;20028;-63
2023/04/19 03:34:09;;;;;;;6.30;3.93;;;9.10;99.90;;;;;;4068070;29;20066;-64
2023/04/19 03:36:10;;;;;;;5.40;3.13;;;9.10;99.90;;;;;;4080104;29;20414;-64
2023/04/19 03:38:11;;;;;;;4.23;2.87;;;9.20;99.90;;;;;;4078691;29;20024;-63
2023/04/19 03:40:12;;;;;;;3.73;2.60;;;9.10;99.90;;;;;;4078611;29;20027;-64
2023/04/19 03:42:13;;;;;;;4.00;2.73;;;9.20;99.90;;;;;;4078043;29;20093;-63
2023/04/19 03:44:15;;;;;;;2.60;2.23;;;9.20;99.90;;;;;;4075816;28;20101;-64
2023/04/19 03:46:16;;;;;;;5.63;2.90;;;9.20;99.90;;;;;;4065361;29;20032;-62
2023/04/19 03:48:17;;;;;;;3.63;3.10;;;9.20;99.90;;;;;;4064115;28;20493;-63
2023/04/19 03:50:18;;;;;;;4.10;2.70;;;9.20;99.90;;;;;;4064421;28;20037;-63
2023/04/19 03:52:19;;;;;;;6.20;2.77;;;9.20;99.90;;;;;;4064212;28;20028;-63
2023/04/19 03:54:21;;;;;;;4.73;3.07;;;9.30;99.90;;;;;;4073360;28;20519;-63
2023/04/19 03:56:22;;;;;;;5.80;2.80;;;9.30;99.90;;;;;;4063041;29;20473;-64
2023/04/19 03:58:24;;;;;;;4.37;2.60;;;9.30;99.90;;;;;;4064331;29;20036;-64
2023/04/19 04:00:26;;;;;;;5.70;2.47;;;9.40;99.90;;;;;;4063844;29;20078;-63
2023/04/19 04:02:27;;;;;;;2.77;2.40;;;9.40;99.90;;;;;;4063153;29;20393;-64
2023/04/19 04:04:28;;;;;;;3.83;2.33;;;9.40;99.90;;;;;;4062852;29;20036;-64
2023/04/19 04:06:29;;;;;;;3.87;2.33;;;9.40;99.90;;;;;;4063890;29;20036;-63
2023/04/19 04:08:30;;;;;;;4.77;3.33;;;9.50;99.90;;;;;;4061472;28;20126;-63
2023/04/19 04:10:31;;;;;;;4.47;2.60;;;9.50;99.90;;;;;;4068249;29;20035;-63
2023/04/19 04:12:33;;;;;;;4.93;1.57;;;9.60;99.90;;;;;;4067206;29;20079;-66
2023/04/19 04:14:34;;;;;;;4.80;2.77;;;9.60;99.90;;;;;;4062350;29;20087;-63
2023/04/19 04:16:35;;;;;;;4.40;2.93;;;9.60;99.90;;;;;;4066165;29;20040;-65
2023/04/19 04:18:37;;;;;;;4.10;2.53;;;9.50;99.90;;;;;;4070579;29;20086;-63
2023/04/19 04:20:38;;;;;;;7.00;2.63;;;9.50;99.90;;;;;;4078585;29;20035;-67
2023/04/19 04:22:41;;;;;;;10.97;4.03;;;9.50;99.90;;;;;;4060746;29;20163;-63
2023/04/19 04:24:43;;;;;;;7.07;3.10;;;9.50;99.90;;;;;;4059303;29;20105;-63
2023/04/19 04:26:45;;;;;;;5.07;2.47;;;9.50;99.90;;;;;;4076261;29;20161;-63
2023/04/19 04:28:46;;;;;;;4.53;2.50;;;9.50;99.90;;;;;;4071673;28;20060;-63
2023/04/19 04:30:47;;;;;;;3.50;2.07;;;9.50;99.90;;;;;;4061408;29;20050;-63
2023/04/19 04:32:50;;;;;;;5.20;2.73;;;9.50;99.90;;;;;;4066338;29;20381;-63
2023/04/19 04:34:51;;;;;;;3.07;2.47;;;9.50;99.90;;;;;;4076990;28;20051;-63
2023/04/19 04:36:52;;;;;;;5.00;2.73;;;9.50;99.90;;;;;;4079114;29;20039;-64
2023/04/19 04:38:53;;;;;;;4.43;2.70;;;9.50;99.90;;;;;;4065940;28;20099;-63
2023/04/19 04:40:55;;;;;;;4.00;2.23;;;9.50;99.90;;;;;;4067681;29;20121;-61
2023/04/19 04:42:56;;;;;;;3.80;2.53;;;9.50;99.90;;;;;;4076611;29;20085;-63
2023/04/19 04:45:00;;;;;;;7.73;2.83;;;9.50;99.90;;;;;;4077799;28;20098;-63
2023/04/19 04:47:01;;;;;;;6.33;3.17;;;9.60;99.90;;;;;;4079211;28;20040;-64
2023/04/19 04:49:02;;;;;;;7.57;4.00;;;9.60;99.90;;;;;;4067729;28;20048;-64
2023/04/19 04:51:04;;;;;;;12.43;3.60;;;9.60;99.90;;;;;;4073129;29;20085;-62
2023/04/19 04:53:05;;;;;;;8.90;3.47;;;9.60;99.90;;;;;;4076756;28;20055;-62
2023/04/19 04:55:07;;;;;;;8.83;3.43;;;9.60;99.90;;;;;;4078407;29;20040;-67
2023/04/19 04:57:09;;;;;;;7.47;4.27;;;9.60;99.90;;;;;;4077961;29;20033;-63
2023/04/19 04:59:10;;;;;;;9.67;3.40;;;9.70;99.90;;;;;;4064630;28;20048;-63
2023/04/19 05:01:11;;;;;;;4.80;3.13;;;9.70;99.90;;;;;;4062728;29;20075;-63
2023/04/19 05:03:12;;;;;;;5.67;3.40;;;9.70;99.90;;;;;;4062623;29;20641;-63
2023/04/19 05:05:13;;;;;;;4.60;3.03;;;9.70;99.90;;;;;;4062014;28;20572;-64
2023/04/19 05:07:15;;;;;;;3.73;2.90;;;9.70;99.90;;;;;;4063147;29;20099;-63
2023/04/19 05:09:16;;;;;;;3.67;3.00;;;9.70;99.90;;;;;;4066243;29;20102;-67
2023/04/19 05:11:17;;;;;;;6.27;2.70;;;9.70;99.90;;;;;;4063527;28;20040;-67
2023/04/19 05:13:18;;;;;;;4.07;2.90;;;9.60;99.90;;;;;;4062732;29;20044;-63
2023/04/19 05:15:20;;;;;;;2.30;2.10;;;9.60;99.90;;;;;;4062393;29;20098;-64
2023/04/19 05:17:21;;;;;;;4.27;2.43;;;9.60;99.90;;;;;;4060969;28;20432;-63
2023/04/19 05:19:22;;;;;;;4.17;2.67;;;9.60;99.90;;;;;;4045434;29;20040;-64
2023/04/19 05:21:23;;;;;;;4.07;2.90;;;9.60;99.90;;;;;;4061971;29;20454;-63
2023/04/19 05:23:24;;;;;;;7.53;3.07;;;9.60;99.90;;;;;;4061951;29;21064;-63
2023/04/19 05:25:26;;;;;;;4.77;3.13;;;9.70;99.90;;;;;;4062452;29;20089;-64
2023/04/19 05:27:27;;;;;;;5.93;2.80;;;9.70;99.90;;;;;;4064160;29;20297;-67
2023/04/19 05:29:28;;;;;;;11.40;3.63;;;9.70;99.90;;;;;;4065300;29;20056;-63
2023/04/19 05:31:29;;;;;;;6.47;3.00;;;9.70;99.90;;;;;;4063792;29;20043;-65
2023/04/19 05:33:31;;;;;;;5.17;3.37;;;9.80;99.90;;;;;;4048303;29;20052;-63
2023/04/19 05:35:32;;;;;;;10.23;5.07;;;9.90;99.90;;;;;;4064165;29;20488;-63
2023/04/19 05:37:35;;;;;;;19.90;5.70;;;9.90;99.90;;;;;;4065754;29;20175;-64
2023/04/19 05:39:37;;;;;;;8.87;3.80;;;10.00;99.90;;;;;;4064362;29;20419;-63
2023/04/19 05:41:39;;;;;;;5.77;3.10;;;9.90;99.90;;;;;;4065028;29;20048;-62
2023/04/19 05:43:40;;;;;;;10.43;3.83;;;10.00;99.90;;;;;;4064339;29;20044;-63
2023/04/19 05:45:41;;;;;;;11.67;4.77;;;10.00;99.90;;;;;;4065288;29;20044;-63
2023/04/19 05:47:43;;;;;;;16.13;4.93;;;9.90;99.90;;;;;;4064433;29;20087;-63
2023/04/19 05:49:44;;;;;;;5.57;3.07;;;10.00;99.90;;;;;;4064479;29;20098;-64
2023/04/19 05:51:45;;;;;;;9.47;4.27;;;10.00;99.90;;;;;;4064823;29;20083;-63
2023/04/19 05:53:46;;;;;;;10.23;2.70;;;10.00;99.90;;;;;;4064321;29;20354;-64
2023/04/19 05:55:49;;;;;;;5.43;2.20;;;10.00;99.90;;;;;;4048177;29;20029;-63
2023/04/19 05:57:50;;;;;;;7.17;2.20;;;10.10;99.90;;;;;;4065612;28;20044;-64
2023/04/19 05:59:52;;;;;;;5.67;1.60;;;10.10;99.90;;;;;;4064931;29;20091;-63
2023/04/19 06:01:54;;;;;;;3.67;1.33;;;10.20;99.90;;;;;;4064252;29;20086;-66
2023/04/19 06:03:55;;;;;;;4.43;2.00;;;10.20;99.90;;;;;;4065275;29;20098;-64
2023/04/19 06:05:57;;;;;;;13.10;2.73;;;10.20;99.90;;;;;;4064168;29;20508;-64
2023/04/19 06:07:58;;;;;;;2.10;1.70;;;10.20;99.90;;;;;;4064593;28;20562;-63
2023/04/19 06:09:59;;;;;;;4.27;1.50;;;10.30;99.90;;;;;;4064067;29;20103;-67
2023/04/19 06:12:00;;;;;;;8.90;2.00;;;10.30;99.90;;;;;;4065046;29;20579;-67
2023/04/19 06:14:01;;;;;;;4.83;2.53;;;10.30;99.90;;;;;;4046807;29;20049;-64
2023/04/19 06:16:03;;;;;;;9.07;2.50;;;10.30;99.90;;;;;;4064657;29;20094;-66
2023/04/19 06:18:08;;;;;;;5.03;2.70;;;10.30;99.90;;;;;;4064436;29;20028;-63
2023/04/19 06:20:11;;;;;;;5.17;2.33;;;10.40;99.90;;;;;;4064968;29;20754;-63
2023/04/19 06:22:12;;;;;;;3.03;1.53;;;10.40;99.90;;;;;;4047885;29;20051;-62
2023/04/19 06:24:13;;;;;;;10.33;1.97;;;10.50;99.90;;;;;;4064281;29;20078;-63
2023/04/19 06:26:15;;;;;;;1.87;1.00;;;10.50;99.90;;;;;;4064078;29;20036;-62
2023/04/19 06:28:16;;;;;;;2.20;1.00;;;10.50;99.90;;;;;;4064143;29;20097;-63
2023/04/19 06:30:17;;;;;;;5.53;1.30;;;10.50;99.90;;;;;;4064831;29;20032;-64
2023/04/19 06:32:20;;;;;;;3.30;1.17;;;10.50;99.90;;;;;;4063613;29;20028;-67
2023/04/19 06:34:21;;;;;;;2.70;0.77;;;10.40;99.90;;;;;;4064897;29;20028;-63
2023/04/19 06:36:22;;;;;;;2.23;0.80;;;10.40;99.90;;;;;;4062913;29;20397;-63
2023/04/19 06:38:23;;;;;;;1.77;1.17;;;10.50;99.90;;;;;;4064069;29;20493;-64
2023/04/19 06:40:27;;;;;;;4.93;0.47;;;10.50;99.90;;;;;;4063697;29;20036;-62
2023/04/19 06:42:29;;;;;;;1.10;0.63;;;10.50;99.90;;;;;;4064920;29;20040;-63
2023/04/19 06:44:30;;;;;;;2.10;0.37;;;10.60;99.90;;;;;;4063357;29;20090;-63
2023/04/19 06:46:31;;;;;;;2.77;0.30;;;10.60;99.90;;;;;;4064982;29;20036;-62
2023/04/19 06:48:33;;;;;;;0.70;0.50;;;10.60;99.90;;;;;;4062969;29;20040;-63
2023/04/19 06:50:34;;;;;;;1.97;0.50;;;10.60;99.90;;;;;;4064463;29;20118;-62
2023/04/19 06:52:35;;;;;;;0.50;0.30;;;10.60;99.90;;;;;;4063320;29;20106;-62
2023/04/19 06:54:37;;;;;;;1.43;0.30;;;10.60;99.90;;;;;;4063788;29;20048;-67
2023/04/19 06:56:44;;;;;;;0.60;0.20;;;10.60;99.90;;;;;;4063946;29;20098;-62
2023/04/19 06:58:45;;;;;;;4.27;0.40;;;10.60;99.90;;;;;;4063793;29;20048;-63
2023/04/19 07:00:46;;;;;;;2.77;0.40;;;10.70;99.90;;;;;;4064193;29;20028;-61
2023/04/19 07:02:49;;;;;;;4.23;0.60;;;10.70;99.90;;;;;;4063288;29;20032;-62
2023/04/19 07:04:50;;;;;;;1.80;0.50;;;10.70;99.90;;;;;;4063988;29;20095;-62
2023/04/19 07:06:52;;;;;;;2.23;0.30;;;10.80;99.90;;;;;;4062973;28;20509;-63
2023/04/19 07:08:53;;;;;;;0.87;0.30;;;10.80;99.90;;;;;;4063857;29;20448;-63
2023/04/19 07:10:55;;;;;;;2.77;1.27;;;10.90;99.90;;;;;;4063292;29;20082;-63
2023/04/19 07:12:56;;;;;;;2.40;0.70;;;11.00;99.90;;;;;;4064473;29;20024;-61
2023/04/19 07:14:57;;;;;;;4.90;2.90;;;11.20;99.90;;;;;;4062733;29;20479;-62
2023/04/19 07:16:59;;;;;;;0.80;0.37;;;11.20;99.90;;;;;;4064419;29;20032;-62
2023/04/19 07:19:00;;;;;;;1.17;0.40;;;11.20;99.90;;;;;;4063291;29;20024;-64
2023/04/19 07:21:01;;;;;;;1.33;0.70;;;11.20;99.90;;;;;;4063478;29;20094;-64
2023/04/19 07:23:03;;;;;;;1.23;0.30;;;11.20;99.90;;;;;;4063181;29;20515;-64
2023/04/19 07:25:04;;;;;;;1.23;0.50;;;11.20;99.90;;;;;;4064106;29;20032;-62
2023/04/19 07:27:05;;;;;;;1.70;0.63;;;11.30;99.90;;;;;;4063468;29;20404;-63
2023/04/19 07:29:06;;;;;;;2.53;1.00;;;11.40;99.90;;;;;;4063682;29;20554;-63
2023/04/19 07:31:14;;;;;;;0.70;0.37;;;11.50;99.90;;;;;;4063342;29;20063;-68
2023/04/19 07:33:15;;;;;;;2.00;0.53;;;11.60;99.90;;;;;;4063681;29;20032;-64
2023/04/19 07:35:18;;;;;;;0.70;0.40;;;11.60;99.90;;;;;;4064116;29;20550;-68
2023/04/19 07:37:19;;;;;;;2.03;0.50;;;11.70;99.90;;;;;;4062585;29;20056;-62
2023/04/19 07:39:20;;;;;;;0.60;0.50;;;11.80;99.90;;;;;;4064057;29;20036;-62
2023/04/19 07:41:22;;;;;;;1.30;0.60;;;11.90;99.90;;;;;;4045867;29;20272;-63
2023/04/19 07:43:23;;;;;;;0.93;0.50;;;11.80;99.90;;;;;;4065048;28;20447;-62
2023/04/19 07:45:24;;;;;;;3.17;0.60;;;11.90;99.90;;;;;;4063023;29;20032;-63
2023/04/19 07:47:25;;;;;;;4.23;0.83;;;12.00;99.90;;;;;;4063950;29;20032;-64
2023/04/19 07:49:28;;;;;;;1.67;0.70;;;12.00;99.90;;;;;;4061356;29;20048;-63
2023/04/19 07:51:29;;;;;;;3.50;1.13;;;12.00;99.90;;;;;;4063480;29;20110;-63
2023/04/19 07:53:30;;;;;;;2.40;0.47;;;12.10;99.90;;;;;;4062798;29;20040;-63
2023/04/19 07:55:31;;;;;;;0.40;0.40;;;12.20;99.90;;;;;;4063550;29;20385;-63
2023/04/19 07:57:34;;;;;;;2.50;0.50;;;12.10;99.90;;;;;;4063369;29;20070;-62
2023/04/19 07:59:35;;;;;;;1.20;0.60;;;12.20;99.90;;;;;;4064571;28;20083;-62
2023/04/19 08:01:36;;;;;;;0.60;0.47;;;12.60;99.90;;;;;;4063291;29;20031;-63
2023/04/19 08:03:37;;;;;;;2.80;0.60;;;12.90;99.90;;;;;;4063121;29;20488;-70
2023/04/19 08:05:39;;;;;;;0.70;0.67;;;13.20;99.90;;;;;;4063181;29;20040;-64
2023/04/19 08:07:40;;;;;;;2.37;0.40;;;13.20;99.90;;;;;;4062645;28;20102;-62
2023/04/19 08:09:41;;;;;;;1.63;0.60;;;13.40;99.90;;;;;;4063637;29;20086;-63
2023/04/19 08:11:42;;;;;;;3.07;1.77;;;13.70;99.90;;;;;;4062621;29;20102;-63
2023/04/19 08:13:43;;;;;;;5.07;1.90;;;13.90;99.90;;;;;;4063683;29;20098;-62
2023/04/19 08:15:44;;;;;;;3.47;2.70;;;13.80;99.90;;;;;;4062452;29;20420;-65
2023/04/19 08:17:46;;;;;;;2.87;2.10;;;13.80;99.90;;;;;;4063669;29;20168;-63
2023/04/19 08:19:49;;;;;;;6.87;3.67;;;13.90;99.90;;;;;;4062357;29;20093;-63
2023/04/19 08:21:50;;;;;;;3.07;2.50;;;14.30;99.90;;;;;;4063509;29;20538;-64
2023/04/19 08:23:51;;;;;;;2.40;1.10;;;14.60;99.90;;;;;;4062325;29;20090;-64
2023/04/19 08:25:52;;;;;;;3.60;1.40;;;14.70;99.90;;;;;;4063342;29;20082;-62
2023/04/19 08:27:54;;;;;;;1.70;1.40;;;14.50;99.90;;;;;;4062442;29;20044;-63
2023/04/19 08:29:55;;;;;;;3.23;1.40;;;14.30;99.90;;;;;;4063217;29;20062;-62
2023/04/19 08:31:56;;;;;;;2.50;1.13;;;14.20;99.90;;;;;;4062660;29;20032;-63
2023/04/19 08:33:59;;;;;;;3.00;1.30;;;14.30;99.90;;;;;;4045652;29;20044;-64
2023/04/19 08:36:00;;;;;;;2.87;1.17;;;14.50;99.90;;;;;;4062796;29;20453;-63
2023/04/19 08:38:01;;;;;;;3.47;1.40;;;14.70;99.90;;;;;;4062307;29;20066;-63
2023/04/19 08:40:03;;;;;;;2.43;1.53;;;15.00;99.90;;;;;;4063083;29;20097;-62
2023/04/19 08:42:07;;;;;;;2.10;1.70;;;14.90;99.90;;;;;;4061909;29;20131;-63
2023/04/19 08:44:11;;;;;;;2.13;1.57;;;15.00;99.90;;;;;;4062571;29;20040;-64
2023/04/19 08:46:12;;;;;;;2.65;1.42;;;15.00;99.60;;;;;;4061701;29;20391;-64
2023/04/19 08:48:15;;;;;;;4.10;1.25;;;15.10;99.60;;;;;;4063278;29;20086;-63
2023/04/19 08:50:20;;;;;;;3.83;1.30;;;15.00;99.90;;;;;;4061311;29;20098;-62
2023/04/19 08:52:23;;;;;;;9.27;1.92;;;15.20;99.30;;;;;;4062726;29;20318;-64
2023/04/19 08:54:28;;;;;;;6.80;1.65;;;15.60;99.00;;;;;;4061728;29;20656;-63
2023/04/19 08:56:30;;;;;;;1.90;1.25;;;15.50;98.60;;;;;;4063059;29;20538;-63
2023/04/19 08:58:31;;;;;;;1.73;1.33;;;15.20;98.90;;;;;;4062236;29;20477;-63
2023/04/19 09:00:33;;;;;;;2.70;1.35;;;15.10;98.80;;;;;;4063845;29;20040;-62
2023/04/19 09:02:50;;;;;;;2.60;1.55;;;15.00;99.10;;;;;;4066475;29;20078;-63
2023/04/19 09:04:52;;;;;;;3.22;1.30;;;15.20;98.70;;;;;;4068592;29;20032;-61
2023/04/19 09:06:54;;;;;;;5.13;1.40;;;15.10;98.90;;;;;;4067012;29;20032;-63
2023/04/19 09:09:15;;;;;;;2.72;1.45;;;14.90;98.80;;;;;;4067337;29;20040;-62
2023/04/19 09:11:16;;;;;;;2.13;1.73;;;14.60;98.60;;;;;;4066042;29;20102;-62
2023/04/19 09:13:17;;;;;;;3.70;1.50;;;14.90;99.20;;;;;;4066959;29;20094;-62
2023/04/19 09:15:37;;;;;;;4.40;1.35;;;14.90;98.90;;;;;;4067159;29;20025;-62
2023/04/19 09:17:39;;;;;;;3.25;1.70;;;15.00;98.50;;;;;;4067846;29;20032;-62
2023/04/19 09:19:48;;;;;;;2.17;1.58;;;15.00;98.60;;;;;;4067291;29;20040;-62
2023/04/19 09:21:50;;;;;;;4.30;1.75;;;15.10;98.20;;;;;;4067468;29;20052;-66
2023/04/19 09:23:51;;;;;;;2.95;1.50;;;14.90;98.40;;;;;;4067172;29;20114;-63
2023/04/19 09:26:00;;;;;;;2.15;1.80;;;14.70;98.50;;;;;;4067043;29;20508;-64
2023/04/19 09:28:09;;;;;;;4.45;1.60;;;14.80;98.60;;;;;;4067365;29;20048;-68
2023/04/19 09:30:11;;;;;;;5.80;1.90;;;15.20;98.20;;;;;;4067238;29;20115;-64
2023/04/19 09:32:12;;;;;;;2.67;1.40;;;15.20;98.20;;;;;;4066943;29;20783;-63
2023/04/19 09:34:16;;;;;;;2.40;1.70;;;15.20;97.80;;;;;;4066673;29;20048;-66
2023/04/19 09:36:27;;;;;;;1.75;1.60;;;15.40;97.60;;;;;;4067180;29;20044;-63
2023/04/19 09:38:28;;;;;;;1.83;1.50;;;15.30;97.20;;;;;;4066716;29;20028;-63
2023/04/19 09:40:29;;;;;;;3.65;1.67;;;15.30;97.60;;;;;;4067320;29;20082;-63
2023/04/19 09:42:46;;;;;;;1.98;1.52;;;15.20;97.50;;;;;;4066530;29;20159;-64
2023/04/19 09:44:57;;;;;;;2.45;1.50;;;15.20;96.20;;;;;;4067684;29;20016;-62
2023/04/19 09:46:59;;;;;;;1.15;1.05;;;15.10;96.50;;;;;;4066126;29;20063;-63
2023/04/19 09:49:21;;;;;;;1.58;1.45;;;15.10;96.50;;;;;;4067929;29;20083;-62
2023/04/19 09:51:23;;;;;;;2.22;1.30;;;15.10;96.20;;;;;;4066350;29;20509;-63
2023/04/19 09:53:26;;;;;;;2.78;1.40;;;15.20;96.40;;;;;;4067948;29;20919;-63
2023/04/19 09:55:27;;;;;;;4.65;1.52;;;15.20;96.30;;;;;;4066498;29;20090;-63
2023/04/19 09:57:30;;;;;;;1.58;1.00;;;15.20;96.30;;;;;;4067944;29;20135;-66
2023/04/19 09:59:31;;;;;;;3.78;1.17;;;15.30;96.20;;;;;;4066802;29;20114;-63
2023/04/19 10:01:35;;;;;;;1.30;1.00;;;15.40;96.20;;;;;;4067141;29;20582;-64
2023/04/19 10:03:36;;;;;;;1.67;1.20;;;15.60;95.70;;;;;;4066757;29;20028;-64
2023/04/19 10:05:41;;;;;;;1.95;1.25;;;15.50;95.20;;;;;;4067808;29;20079;-67
2023/04/19 10:07:43;;;;;;;6.85;1.30;;;15.50;95.30;;;;;;4066404;28;20110;-65
2023/04/19 10:09:47;;;;;;;4.35;1.30;;;15.30;95.10;;;;;;4067497;29;20074;-63
2023/04/19 10:11:50;;;;;;;2.28;0.95;;;15.30;94.80;;;;;;4065807;29;20547;-62
2023/04/19 10:13:57;;;;;;;3.20;1.30;;;15.40;94.90;;;;;;4064166;29;20090;-64
2023/04/19 10:15:59;;;;;;;1.33;0.90;;;15.60;94.70;;;;;;4063513;29;20040;-67
2023/04/19 10:18:01;;;;;;;1.88;0.90;;;15.60;95.00;;;;;;4063982;29;20052;-64
2023/04/19 10:20:07;;;;;;;2.75;1.00;;;15.40;95.00;;;;;;4063795;29;20123;-63
2023/04/19 10:22:09;;;;;;;4.68;1.05;;;15.40;95.10;;;;;;4064335;29;20036;-63
2023/04/19 10:24:12;;;;;;;1.15;0.80;;;15.40;95.00;;;;;;4063711;29;20129;-64
2023/04/19 10:26:13;;;;;;;1.38;1.02;;;15.30;94.80;;;;;;4063483;29;20452;-63
2023/04/19 10:28:15;;;;;;;2.65;1.00;;;15.30;95.00;;;;;;4064716;29;20090;-63
2023/04/19 10:30:25;;;;;;;3.67;1.05;;;15.20;95.00;;;;;;4063827;29;20542;-68
2023/04/19 10:32:37;;;;;;;2.13;1.23;;;15.30;95.10;;;;;;4064953;29;20036;-62
2023/04/19 10:34:39;;;;;;;1.10;0.90;;;15.30;94.90;;;;;;4063682;29;20048;-62
2023/04/19 10:36:40;;;;;;;2.60;1.38;;;15.30;95.00;;;;;;4065443;28;20455;-64
2023/04/19 10:38:50;;;;;;;3.35;1.65;;;15.30;95.40;;;;;;4064364;28;20485;-62